Time;durP1;ratioP1;P1;durP2;ratioP2;P2;SDS_P1;SDS_P2;PMS_P1;PMS_P2;Temp;Humidity;BMP_temperature;BMP_pressure;BME280_temperature;BME280_humidity;BME280_pressure;Samples;Min_cycle;Max_cycle;Signal;HPM_P1;HPM_P2
2021/07/09 00:01:46;;;;;;;6.37;5.77;;;19.70;1.00;;;;;;5064953;28;20541;-76
2021/07/09 00:04:14;;;;;;;6.63;6.07;;;19.70;1.00;;;;;;5075514;28;20475;-75
2021/07/09 00:06:44;;;;;;;7.37;6.67;;;19.70;1.00;;;;;;5064357;28;21469;-76
2021/07/09 00:09:11;;;;;;;7.23;6.63;;;19.70;1.00;;;;;;5067296;28;20478;-75
2021/07/09 00:11:39;;;;;;;6.33;5.80;;;19.70;1.00;;;;;;5064687;28;20451;-76
2021/07/09 00:14:07;;;;;;;7.10;6.30;;;19.70;1.00;;;;;;5068621;28;20562;-75
2021/07/09 00:16:34;;;;;;;6.73;6.03;;;19.70;1.00;;;;;;5068828;28;20443;-76
2021/07/09 00:19:03;;;;;;;7.00;6.40;;;19.60;1.00;;;;;;5063815;28;20450;-75
2021/07/09 00:21:30;;;;;;;7.00;6.20;;;19.70;1.00;;;;;;5067525;28;20451;-75
2021/07/09 00:23:59;;;;;;;6.63;6.03;;;19.70;1.00;;;;;;5063084;28;20463;-75
2021/07/09 00:26:26;;;;;;;7.00;6.40;;;19.70;1.00;;;;;;5062594;28;20445;-75
2021/07/09 00:28:53;;;;;;;6.03;5.63;;;19.70;1.00;;;;;;5061080;28;20871;-75
2021/07/09 00:31:19;;;;;;;6.87;6.23;;;19.70;1.00;;;;;;5064278;28;20462;-75
2021/07/09 00:33:46;;;;;;;6.60;6.10;;;19.70;1.00;;;;;;5053432;28;20482;-76
2021/07/09 00:36:13;;;;;;;6.47;5.97;;;19.70;1.00;;;;;;5068000;28;20447;-76
2021/07/09 00:38:39;;;;;;;6.23;5.63;;;19.70;1.00;;;;;;5065075;28;20465;-75
2021/07/09 00:41:07;;;;;;;6.47;5.70;;;19.60;1.00;;;;;;5065242;28;20451;-76
2021/07/09 00:43:34;;;;;;;6.50;5.80;;;19.60;1.00;;;;;;5065817;28;20478;-75
2021/07/09 00:46:01;;;;;;;6.70;6.13;;;19.60;1.00;;;;;;5070256;28;20515;-76
2021/07/09 00:48:28;;;;;;;6.43;5.83;;;19.60;1.00;;;;;;5070510;28;21026;-76
2021/07/09 00:50:57;;;;;;;7.50;6.17;;;19.50;1.00;;;;;;5070560;28;21174;-75
2021/07/09 00:53:23;;;;;;;6.40;5.80;;;19.50;1.00;;;;;;5064786;28;20462;-76
2021/07/09 00:55:50;;;;;;;7.40;6.77;;;19.50;1.00;;;;;;5068611;28;20444;-75
2021/07/09 00:58:18;;;;;;;6.67;6.00;;;19.50;1.00;;;;;;5069432;28;20904;-75
2021/07/09 01:00:46;;;;;;;8.13;6.23;;;19.60;1.00;;;;;;5065829;28;21264;-75
2021/07/09 01:03:12;;;;;;;5.93;5.43;;;19.60;1.00;;;;;;5071958;28;20477;-75
2021/07/09 01:05:40;;;;;;;6.60;6.10;;;19.60;1.00;;;;;;5065845;28;21021;-76
2021/07/09 01:08:07;;;;;;;6.20;5.70;;;19.60;1.00;;;;;;5066323;28;20467;-75
2021/07/09 01:10:34;;;;;;;6.93;6.13;;;19.60;1.00;;;;;;5061119;28;20463;-76
2021/07/09 01:13:01;;;;;;;6.00;5.40;;;19.70;1.00;;;;;;5067723;28;20550;-75
2021/07/09 01:15:30;;;;;;;6.60;6.00;;;19.60;1.00;;;;;;5084950;22;20419;-76
2021/07/09 01:17:57;;;;;;;8.00;6.00;;;19.60;1.00;;;;;;5093940;28;20956;-76
2021/07/09 01:20:24;;;;;;;6.40;5.77;;;19.60;1.00;;;;;;5089010;28;20466;-76
2021/07/09 01:22:51;;;;;;;6.20;5.63;;;19.60;1.00;;;;;;5089653;28;20459;-77
2021/07/09 01:25:21;;;;;;;5.90;5.50;;;19.60;1.00;;;;;;5085007;28;20928;-76
2021/07/09 01:27:49;;;;;;;6.93;5.30;;;19.60;1.00;;;;;;5084172;28;20498;-77
2021/07/09 01:30:19;;;;;;;5.47;5.07;;;19.60;1.00;;;;;;5088702;28;20431;-76
2021/07/09 01:32:46;;;;;;;7.60;6.23;;;19.70;1.00;;;;;;5082299;28;20466;-77
2021/07/09 01:35:14;;;;;;;6.47;5.87;;;19.60;1.00;;;;;;5097903;28;20436;-76
2021/07/09 01:37:41;;;;;;;6.00;5.53;;;19.60;1.00;;;;;;5083868;27;20454;-77
2021/07/09 01:40:10;;;;;;;6.67;6.00;;;19.50;1.00;;;;;;5087229;28;20455;-76
2021/07/09 01:42:39;;;;;;;7.63;6.40;;;19.40;1.00;;;;;;5083626;28;20988;-76
2021/07/09 01:45:07;;;;;;;6.73;6.17;;;19.30;1.00;;;;;;5090109;28;20443;-76
2021/07/09 01:47:34;;;;;;;7.57;6.90;;;19.30;1.00;;;;;;5083689;28;20439;-76
2021/07/09 01:50:02;;;;;;;6.63;6.03;;;19.30;1.00;;;;;;5089684;27;20435;-76
2021/07/09 01:52:30;;;;;;;7.10;6.50;;;19.30;1.00;;;;;;5084674;28;20459;-75
2021/07/09 01:54:59;;;;;;;7.50;6.80;;;19.30;1.00;;;;;;5079667;28;20451;-76
2021/07/09 01:57:25;;;;;;;7.63;6.37;;;19.20;1.00;;;;;;5082751;28;20455;-77
2021/07/09 01:59:54;;;;;;;7.53;6.90;;;19.20;1.00;;;;;;5085191;28;20467;-77
2021/07/09 02:02:21;;;;;;;7.67;6.40;;;19.20;1.00;;;;;;5086440;28;21207;-77
2021/07/09 02:04:48;;;;;;;7.27;6.77;;;19.20;1.00;;;;;;5081701;28;20436;-77
2021/07/09 02:07:15;;;;;;;10.63;6.67;;;19.20;1.00;;;;;;5085312;28;21246;-77
2021/07/09 02:09:44;;;;;;;7.03;6.40;;;19.20;1.00;;;;;;5082635;28;20447;-77
2021/07/09 02:12:12;;;;;;;7.67;6.97;;;19.20;1.00;;;;;;5088733;28;20450;-77
2021/07/09 02:14:39;;;;;;;7.90;7.23;;;19.20;1.00;;;;;;5082968;28;20946;-77
2021/07/09 02:17:10;;;;;;;7.40;6.80;;;19.20;1.00;;;;;;5084657;28;20455;-76
2021/07/09 02:19:36;;;;;;;6.93;6.33;;;19.20;1.00;;;;;;5086322;28;20465;-78
2021/07/09 02:22:05;;;;;;;7.10;6.60;;;19.20;1.00;;;;;;5081091;28;21428;-77
2021/07/09 02:24:34;;;;;;;7.17;6.57;;;19.10;1.00;;;;;;5082838;28;20885;-76
2021/07/09 02:27:01;;;;;;;7.00;6.40;;;19.10;1.00;;;;;;5081136;28;20497;-77
2021/07/09 02:29:28;;;;;;;7.30;6.70;;;19.10;1.00;;;;;;5087516;28;20848;-76
2021/07/09 02:31:54;;;;;;;7.10;6.60;;;19.10;1.00;;;;;;5079845;27;20447;-77
2021/07/09 02:34:22;;;;;;;9.70;7.70;;;19.10;1.00;;;;;;5096518;28;21115;-77
2021/07/09 02:36:49;;;;;;;8.00;6.60;;;19.10;1.00;;;;;;5078559;28;20439;-76
2021/07/09 02:39:15;;;;;;;8.33;7.50;;;19.10;1.00;;;;;;5089707;28;20470;-77
2021/07/09 02:41:42;;;;;;;8.60;7.90;;;19.10;1.00;;;;;;5081603;28;20990;-75
2021/07/09 02:44:09;;;;;;;8.07;7.27;;;19.10;1.00;;;;;;5090286;28;20442;-76
2021/07/09 02:46:36;;;;;;;7.93;7.23;;;19.10;1.00;;;;;;5084295;28;20450;-76
2021/07/09 02:49:02;;;;;;;8.67;7.87;;;19.00;1.00;;;;;;5085481;28;20467;-76
2021/07/09 02:51:30;;;;;;;7.23;6.63;;;19.10;1.00;;;;;;5085747;28;21251;-76
2021/07/09 02:53:57;;;;;;;10.27;7.50;;;19.10;1.00;;;;;;5082752;28;20538;-75
2021/07/09 02:56:23;;;;;;;8.03;7.43;;;19.10;1.00;;;;;;5081566;28;20466;-77
2021/07/09 02:58:50;;;;;;;14.30;11.30;;;19.10;1.00;;;;;;5078551;28;20490;-77
2021/07/09 03:01:17;;;;;;;7.17;6.53;;;19.20;1.00;;;;;;5082911;28;20458;-77
2021/07/09 03:03:43;;;;;;;8.07;7.30;;;19.10;1.00;;;;;;5081318;28;20439;-77
2021/07/09 03:06:10;;;;;;;7.83;7.13;;;19.20;1.00;;;;;;5087741;28;20445;-76
2021/07/09 03:08:38;;;;;;;7.77;7.10;;;19.20;1.00;;;;;;5083972;28;20561;-77
2021/07/09 03:11:05;;;;;;;8.20;7.50;;;19.20;1.00;;;;;;5089302;28;20462;-77
2021/07/09 03:13:31;;;;;;;8.10;7.40;;;19.20;1.00;;;;;;5079084;28;20459;-76
2021/07/09 03:15:58;;;;;;;8.43;7.53;;;19.30;1.00;;;;;;5093740;28;21473;-77
2021/07/09 03:18:26;;;;;;;8.73;7.20;;;19.30;1.00;;;;;;5082800;28;20523;-77
2021/07/09 03:20:54;;;;;;;8.20;7.50;;;19.30;1.00;;;;;;5076975;28;20462;-78
2021/07/09 03:23:21;;;;;;;8.53;7.40;;;19.30;1.00;;;;;;5083209;28;20466;-78
2021/07/09 03:25:49;;;;;;;7.37;6.77;;;19.30;1.00;;;;;;5083103;28;20794;-77
2021/07/09 03:28:16;;;;;;;10.73;7.30;;;19.40;1.00;;;;;;5083581;28;20558;-76
2021/07/09 03:30:43;;;;;;;7.40;6.80;;;19.40;1.00;;;;;;5077924;28;21042;-76
2021/07/09 03:33:10;;;;;;;8.10;7.30;;;19.40;1.00;;;;;;5087928;28;21048;-76
2021/07/09 03:35:38;;;;;;;10.93;9.90;;;19.40;1.00;;;;;;5080508;28;20446;-77
2021/07/09 03:38:05;;;;;;;8.63;7.67;;;19.30;1.00;;;;;;5085081;28;20443;-76
2021/07/09 03:40:32;;;;;;;8.60;7.80;;;19.30;1.00;;;;;;5079354;28;20456;-75
2021/07/09 03:43:00;;;;;;;8.53;7.70;;;19.30;1.00;;;;;;5091462;28;21019;-75
2021/07/09 03:45:27;;;;;;;8.47;7.67;;;19.20;1.00;;;;;;5079293;28;20784;-75
2021/07/09 03:47:54;;;;;;;8.87;7.50;;;19.20;1.00;;;;;;5084117;28;20453;-75
2021/07/09 03:50:20;;;;;;;8.40;7.40;;;19.20;1.00;;;;;;5086295;28;20517;-76
2021/07/09 03:52:47;;;;;;;9.07;8.17;;;19.20;1.00;;;;;;5084676;28;21103;-77
2021/07/09 03:55:14;;;;;;;8.40;7.60;;;19.10;1.00;;;;;;5083243;28;20462;-76
2021/07/09 03:57:41;;;;;;;9.70;7.97;;;19.10;1.00;;;;;;5087850;28;20470;-76
2021/07/09 04:00:12;;;;;;;8.57;7.77;;;19.10;1.00;;;;;;5081540;28;20478;-78
2021/07/09 04:02:39;;;;;;;9.93;9.03;;;19.10;1.00;;;;;;5081088;28;20481;-77
2021/07/09 04:05:06;;;;;;;11.30;8.70;;;19.00;1.00;;;;;;5087608;28;20458;-77
2021/07/09 04:07:33;;;;;;;11.00;9.43;;;19.00;1.00;;;;;;5080608;28;20513;-76
2021/07/09 04:09:59;;;;;;;10.70;9.80;;;19.00;1.00;;;;;;5086715;28;20427;-78
2021/07/09 04:12:26;;;;;;;9.77;8.77;;;18.80;1.00;;;;;;5083634;28;20447;-77
2021/07/09 04:14:53;;;;;;;10.30;9.40;;;18.80;1.00;;;;;;5085002;28;20506;-78
2021/07/09 04:17:21;;;;;;;14.60;13.40;;;18.80;1.00;;;;;;5080533;28;21280;-78
2021/07/09 04:19:49;;;;;;;10.50;9.57;;;18.70;1.00;;;;;;5084254;28;20558;-78
2021/07/09 04:22:15;;;;;;;11.07;10.07;;;18.70;1.00;;;;;;5082867;28;20575;-78
2021/07/09 04:24:42;;;;;;;12.63;11.33;;;18.70;1.00;;;;;;5083147;28;20870;-78
2021/07/09 04:27:09;;;;;;;11.77;10.67;;;18.70;1.00;;;;;;5085218;28;20464;-78
2021/07/09 04:29:36;;;;;;;11.73;10.53;;;18.70;1.00;;;;;;5082482;28;20449;-78
2021/07/09 04:32:03;;;;;;;12.00;11.00;;;18.70;1.00;;;;;;5086480;28;20466;-77
2021/07/09 04:34:31;;;;;;;13.17;12.00;;;18.70;1.00;;;;;;5085062;27;20866;-77
2021/07/09 04:36:58;;;;;;;17.47;13.90;;;18.70;1.00;;;;;;5088950;28;20472;-76
2021/07/09 04:39:25;;;;;;;12.17;11.10;;;18.70;1.00;;;;;;5082037;28;20467;-77
2021/07/09 04:41:51;;;;;;;15.10;12.30;;;18.70;1.00;;;;;;5091452;28;20430;-76
2021/07/09 04:44:18;;;;;;;15.73;13.73;;;18.60;1.00;;;;;;5081710;28;20461;-77
2021/07/09 04:46:45;;;;;;;13.60;12.20;;;18.60;1.00;;;;;;5092515;28;20454;-76
2021/07/09 04:49:12;;;;;;;14.47;13.17;;;18.60;1.00;;;;;;5084508;28;20480;-77
2021/07/09 04:51:40;;;;;;;15.03;13.53;;;18.70;1.00;;;;;;5091179;28;20437;-76
2021/07/09 04:54:06;;;;;;;16.43;14.80;;;18.70;1.00;;;;;;5085497;28;21045;-76
2021/07/09 04:56:34;;;;;;;14.80;13.50;;;18.70;1.00;;;;;;5089858;28;20449;-76
2021/07/09 04:59:01;;;;;;;14.40;12.70;;;18.60;1.00;;;;;;5092274;28;20874;-77
2021/07/09 05:01:27;;;;;;;14.40;13.17;;;18.60;1.00;;;;;;5089345;27;20475;-77
2021/07/09 05:03:54;;;;;;;14.13;12.80;;;18.60;1.00;;;;;;5092224;28;20957;-76
2021/07/09 05:06:21;;;;;;;15.40;13.80;;;18.60;1.00;;;;;;5092127;28;20469;-76
2021/07/09 05:08:49;;;;;;;16.70;15.20;;;18.60;1.00;;;;;;5090052;28;20514;-76
2021/07/09 05:11:16;;;;;;;15.63;13.90;;;18.60;1.00;;;;;;5085979;28;20454;-77
2021/07/09 05:13:43;;;;;;;15.80;13.90;;;18.60;1.00;;;;;;5089074;28;20413;-76
2021/07/09 05:16:09;;;;;;;23.93;15.10;;;18.60;1.00;;;;;;5087880;27;20484;-76
2021/07/09 05:18:36;;;;;;;14.90;13.60;;;18.60;1.00;;;;;;5089478;28;20828;-76
2021/07/09 05:21:03;;;;;;;14.10;12.90;;;18.60;1.00;;;;;;5083664;28;20462;-77
2021/07/09 05:23:30;;;;;;;15.20;13.70;;;18.60;1.00;;;;;;5092796;28;20430;-77
2021/07/09 05:25:58;;;;;;;14.73;13.53;;;18.70;1.00;;;;;;5089512;28;20458;-75
2021/07/09 05:28:25;;;;;;;16.23;14.43;;;18.70;1.00;;;;;;5088430;28;20453;-75
2021/07/09 05:30:52;;;;;;;14.40;13.20;;;18.70;1.00;;;;;;5087106;28;20528;-76
2021/07/09 05:33:19;;;;;;;17.33;15.70;;;18.70;1.00;;;;;;5096929;28;20666;-76
2021/07/09 05:35:49;;;;;;;15.30;13.73;;;18.60;1.00;;;;;;5094278;28;20916;-80
2021/07/09 05:38:16;;;;;;;16.23;14.87;;;18.60;1.00;;;;;;5088429;28;20473;-78
2021/07/09 05:40:43;;;;;;;14.80;13.40;;;18.60;1.00;;;;;;5099698;28;21173;-75
2021/07/09 05:43:11;;;;;;;14.00;12.70;;;18.60;1.00;;;;;;5093862;28;20554;-76
2021/07/09 05:45:38;;;;;;;16.63;15.03;;;18.60;1.00;;;;;;5091142;28;20415;-77
2021/07/09 05:48:05;;;;;;;14.77;13.47;;;18.70;1.00;;;;;;5091047;28;20425;-76
2021/07/09 05:50:32;;;;;;;14.67;13.33;;;18.70;1.00;;;;;;5094015;28;21198;-76
2021/07/09 05:52:59;;;;;;;17.57;15.93;;;18.70;1.00;;;;;;5089519;28;20522;-75
2021/07/09 05:55:25;;;;;;;16.13;14.60;;;18.70;1.00;;;;;;5092100;28;20451;-76
2021/07/09 05:57:53;;;;;;;14.13;12.87;;;18.70;1.00;;;;;;5084229;28;20846;-76
2021/07/09 06:00:21;;;;;;;15.63;14.23;;;18.70;1.00;;;;;;5095672;27;20481;-75
2021/07/09 06:02:48;;;;;;;14.33;12.97;;;18.70;1.00;;;;;;5097321;28;20414;-75
2021/07/09 06:05:15;;;;;;;13.67;12.53;;;18.70;1.00;;;;;;5099116;28;20458;-76
2021/07/09 06:07:41;;;;;;;16.80;15.40;;;18.70;1.00;;;;;;5101004;28;20640;-77
2021/07/09 06:10:09;;;;;;;16.23;14.90;;;18.70;1.00;;;;;;5091724;28;20530;-77
2021/07/09 06:12:36;;;;;;;14.77;13.57;;;18.70;1.00;;;;;;5086891;28;20485;-75
2021/07/09 06:15:04;;;;;;;15.17;13.77;;;18.80;1.00;;;;;;5089985;28;20482;-75
2021/07/09 06:17:33;;;;;;;15.70;14.30;;;18.90;1.00;;;;;;5089660;28;20496;-76
2021/07/09 06:20:00;;;;;;;17.20;15.70;;;18.80;1.00;;;;;;5084094;28;21165;-76
2021/07/09 06:22:26;;;;;;;18.07;16.47;;;18.80;1.00;;;;;;5096855;28;20425;-76
2021/07/09 06:24:53;;;;;;;17.07;15.47;;;18.80;1.00;;;;;;5089832;28;20934;-74
2021/07/09 06:27:20;;;;;;;16.60;15.10;;;18.80;1.00;;;;;;5093574;28;20987;-77
2021/07/09 06:29:47;;;;;;;16.53;15.03;;;18.90;1.00;;;;;;5086295;28;20446;-77
2021/07/09 06:32:13;;;;;;;17.37;15.77;;;18.90;1.00;;;;;;5093567;28;20439;-77
2021/07/09 06:34:42;;;;;;;17.60;15.80;;;18.90;1.00;;;;;;5085752;28;20492;-76
2021/07/09 06:37:09;;;;;;;18.33;16.80;;;19.00;1.00;;;;;;5095270;28;20453;-76
2021/07/09 06:39:36;;;;;;;18.77;17.07;;;19.00;1.00;;;;;;5090250;28;21048;-76
2021/07/09 06:42:02;;;;;;;17.70;16.30;;;19.10;1.00;;;;;;5086271;28;20436;-77
2021/07/09 06:44:29;;;;;;;17.50;16.00;;;19.10;1.00;;;;;;5087425;28;20457;-77
2021/07/09 06:46:56;;;;;;;17.30;15.90;;;19.10;1.00;;;;;;5084110;28;20450;-78
2021/07/09 06:49:22;;;;;;;18.90;17.23;;;19.10;1.00;;;;;;5085653;28;20434;-77
2021/07/09 06:51:53;;;;;;;17.03;15.53;;;19.20;1.00;;;;;;5086959;28;20419;-77
2021/07/09 06:54:19;;;;;;;18.33;16.77;;;19.20;1.00;;;;;;5091304;28;20955;-77
2021/07/09 06:56:46;;;;;;;19.20;17.60;;;19.20;1.00;;;;;;5085258;27;20612;-74
2021/07/09 06:59:14;;;;;;;19.97;18.17;;;19.20;1.00;;;;;;5091467;28;20981;-75
2021/07/09 07:01:40;;;;;;;19.10;17.50;;;19.30;1.00;;;;;;5082803;28;20485;-76
2021/07/09 07:04:09;;;;;;;19.97;18.17;;;19.30;1.00;;;;;;5088717;28;20482;-76
2021/07/09 07:06:36;;;;;;;19.87;17.93;;;19.20;1.00;;;;;;5080983;28;20464;-74
2021/07/09 07:09:04;;;;;;;21.20;19.40;;;19.20;1.00;;;;;;5094653;28;20835;-76
2021/07/09 07:11:31;;;;;;;20.27;18.50;;;19.30;1.00;;;;;;5086272;28;20442;-76
2021/07/09 07:13:58;;;;;;;20.30;18.40;;;19.30;1.00;;;;;;5085000;28;20447;-76
2021/07/09 07:16:24;;;;;;;21.37;19.50;;;19.30;1.00;;;;;;5110768;22;20469;-74
2021/07/09 07:18:51;;;;;;;21.20;19.50;;;19.30;1.00;;;;;;5106789;27;20470;-73
2021/07/09 07:21:18;;;;;;;27.13;25.13;;;19.40;1.00;;;;;;5109043;27;20472;-75
2021/07/09 07:23:44;;;;;;;20.20;18.60;;;19.30;1.00;;;;;;5107532;27;20445;-75
2021/07/09 07:26:13;;;;;;;19.67;17.87;;;19.40;1.00;;;;;;5106790;27;20579;-75
2021/07/09 07:28:39;;;;;;;20.17;18.57;;;19.40;1.00;;;;;;5105533;27;20458;-76
2021/07/09 07:31:06;;;;;;;21.20;19.53;;;19.30;1.00;;;;;;5110034;27;20452;-75
2021/07/09 07:33:33;;;;;;;25.73;23.10;;;19.30;1.00;;;;;;5104400;27;21143;-75
2021/07/09 07:36:00;;;;;;;20.80;19.10;;;19.30;1.00;;;;;;5103371;27;20464;-74
2021/07/09 07:38:26;;;;;;;21.33;19.40;;;19.40;1.00;;;;;;5103423;27;20426;-75
2021/07/09 07:40:53;;;;;;;27.77;25.20;;;19.40;1.00;;;;;;5108119;27;20536;-74
2021/07/09 07:43:21;;;;;;;22.23;20.40;;;19.50;1.00;;;;;;5103373;27;20454;-74
2021/07/09 07:45:47;;;;;;;20.70;18.80;;;19.50;1.00;;;;;;5105980;27;21487;-74
2021/07/09 07:48:14;;;;;;;23.45;21.63;;;19.60;1.00;;;;;;5109247;27;20423;-75
2021/07/09 07:50:41;;;;;;;21.17;19.27;;;19.70;1.00;;;;;;5105429;27;20230;-75
2021/07/09 07:53:07;;;;;;;19.53;17.90;;;19.70;1.00;;;;;;5103173;27;20443;-75
2021/07/09 07:55:35;;;;;;;21.40;19.70;;;19.80;1.00;;;;;;5099653;27;20466;-75
2021/07/09 07:58:01;;;;;;;20.67;18.97;;;19.90;1.00;;;;;;5105489;27;21356;-75
2021/07/09 08:00:29;;;;;;;21.17;19.37;;;20.10;1.00;;;;;;5106131;27;20484;-75
2021/07/09 08:02:57;;;;;;;21.17;19.33;;;20.20;1.00;;;;;;5113576;27;20444;-75
2021/07/09 08:05:26;;;;;;;21.37;19.37;;;20.30;1.00;;;;;;5106195;27;20448;-75
2021/07/09 08:07:53;;;;;;;20.13;18.23;;;20.40;1.00;;;;;;5113000;27;20450;-74
2021/07/09 08:10:19;;;;;;;20.50;18.70;;;20.50;1.00;;;;;;5105103;27;21186;-74
2021/07/09 08:12:46;;;;;;;18.70;17.10;;;20.60;1.00;;;;;;5114941;27;20451;-75
2021/07/09 08:15:13;;;;;;;19.77;18.00;;;20.70;1.00;;;;;;5111207;27;20463;-74
2021/07/09 08:17:41;;;;;;;20.33;18.63;;;20.70;1.00;;;;;;5110955;27;20418;-76
2021/07/09 08:20:08;;;;;;;21.30;19.47;;;20.70;1.00;;;;;;5107811;27;21010;-76
2021/07/09 08:22:36;;;;;;;17.30;15.87;;;20.80;1.00;;;;;;5101931;27;21375;-76
2021/07/09 08:25:05;;;;;;;18.97;17.20;;;20.80;1.00;;;;;;5111782;27;20450;-76
2021/07/09 08:27:31;;;;;;;17.60;16.10;;;20.80;1.00;;;;;;5106768;27;20889;-76
2021/07/09 08:29:58;;;;;;;18.50;17.00;;;20.80;1.00;;;;;;5106731;27;20483;-75
2021/07/09 08:32:24;;;;;;;18.90;17.40;;;20.80;1.00;;;;;;5105632;27;20460;-76
2021/07/09 08:34:54;;;;;;;20.70;18.80;;;20.70;1.00;;;;;;5109969;27;20449;-75
2021/07/09 08:37:20;;;;;;;20.33;18.67;;;20.70;1.00;;;;;;5102695;27;20446;-75
2021/07/09 08:39:47;;;;;;;18.77;17.27;;;20.80;1.00;;;;;;5107899;27;21374;-75
2021/07/09 08:42:14;;;;;;;18.20;16.80;;;20.80;1.00;;;;;;5104307;27;20417;-74
2021/07/09 08:44:40;;;;;;;17.90;16.50;;;20.90;1.00;;;;;;5106796;27;20459;-75
2021/07/09 08:47:07;;;;;;;18.33;16.83;;;21.00;1.00;;;;;;5104781;27;20466;-75
2021/07/09 08:49:35;;;;;;;19.87;18.13;;;21.00;1.00;;;;;;5105967;27;21449;-75
2021/07/09 08:52:03;;;;;;;17.47;15.97;;;21.10;1.00;;;;;;5110393;27;20434;-75
2021/07/09 08:54:30;;;;;;;18.50;17.00;;;21.10;1.00;;;;;;5110197;27;20451;-75
2021/07/09 08:56:57;;;;;;;18.90;17.40;;;21.10;1.00;;;;;;5106882;27;21417;-75
2021/07/09 08:59:23;;;;;;;18.57;17.17;;;21.00;1.00;;;;;;5107370;27;20435;-74
2021/07/09 09:01:52;;;;;;;18.33;16.93;;;21.00;1.00;;;;;;5106074;27;20442;-75
2021/07/09 09:04:27;;;;;;;17.30;16.00;;;21.00;1.00;;;;;;5108585;27;20457;-75
2021/07/09 09:07:04;;;;;;;19.03;17.60;;;21.00;1.00;;;;;;5104558;27;20454;-75
2021/07/09 09:09:33;;;;;;;19.80;18.00;;;21.00;1.00;;;;;;5100366;27;20857;-75
2021/07/09 09:12:08;;;;;;;19.40;17.97;;;21.00;1.00;;;;;;5107038;27;20457;-75
2021/07/09 09:14:36;;;;;;;19.90;18.20;;;21.00;1.00;;;;;;5100648;27;20471;-75
2021/07/09 09:17:23;;;;;;;20.90;19.23;;;21.10;1.00;;;;;;5109346;27;21434;-75
2021/07/09 09:20:13;;;;;;;20.20;18.50;;;21.20;1.00;;;;;;5109227;27;20458;-76
2021/07/09 09:22:56;;;;;;;19.67;17.83;;;21.30;1.00;;;;;;5106701;27;20512;-76
2021/07/09 09:25:24;;;;;;;21.20;19.50;;;21.50;1.00;;;;;;5114075;27;20459;-74
2021/07/09 09:28:01;;;;;;;19.10;17.30;;;21.70;1.00;;;;;;5103826;27;20556;-76
2021/07/09 09:30:30;;;;;;;17.30;15.67;;;22.00;1.00;;;;;;5112306;27;20445;-74
2021/07/09 09:32:56;;;;;;;17.33;15.93;;;22.20;1.00;;;;;;5112410;27;20435;-76
2021/07/09 09:35:25;;;;;;;15.73;14.63;;;22.40;1.00;;;;;;5112905;27;20483;-75
2021/07/09 09:37:54;;;;;;;21.60;19.87;;;22.60;1.00;;;;;;5114353;27;20565;-75
2021/07/09 09:40:23;;;;;;;14.60;13.40;;;22.80;1.00;;;;;;5109763;27;20524;-76
2021/07/09 09:42:50;;;;;;;14.40;13.30;;;22.90;1.00;;;;;;5110111;27;20443;-76
2021/07/09 09:45:20;;;;;;;14.17;12.87;;;23.20;1.00;;;;;;5109632;27;21021;-76
2021/07/09 09:47:47;;;;;;;11.93;10.57;;;23.30;1.00;;;;;;5111503;27;20445;-76
2021/07/09 09:50:17;;;;;;;13.13;11.97;;;23.10;1.00;;;;;;5107951;27;20441;-76
2021/07/09 09:52:45;;;;;;;14.83;13.53;;;23.00;1.00;;;;;;5114032;27;20463;-75
2021/07/09 09:55:15;;;;;;;12.33;11.33;;;22.80;1.00;;;;;;5106804;27;20462;-76
2021/07/09 09:57:43;;;;;;;12.97;11.97;;;22.50;1.00;;;;;;5107901;27;20425;-76
2021/07/09 10:00:26;;;;;;;14.67;13.20;;;22.40;1.00;;;;;;5108410;27;20436;-76
2021/07/09 10:02:53;;;;;;;12.50;11.33;;;22.20;1.00;;;;;;5106913;27;20454;-76
2021/07/09 10:05:20;;;;;;;12.20;11.00;;;22.00;1.00;;;;;;5112034;27;20458;-74
2021/07/09 10:07:47;;;;;;;12.60;11.40;;;21.90;1.00;;;;;;5109928;27;20707;-77
2021/07/09 10:10:16;;;;;;;12.07;11.07;;;21.80;1.00;;;;;;5113243;27;21352;-76
2021/07/09 10:12:44;;;;;;;14.03;10.57;;;21.80;1.00;;;;;;5106233;27;20466;-76
2021/07/09 10:15:11;;;;;;;12.30;11.20;;;21.80;1.00;;;;;;5108247;27;20454;-76
2021/07/09 10:17:38;;;;;;;13.40;12.10;;;21.70;1.00;;;;;;5105685;27;20442;-74
2021/07/09 10:20:09;;;;;;;14.10;13.00;;;21.60;1.00;;;;;;5114480;27;21360;-76
2021/07/09 10:22:35;;;;;;;14.37;13.07;;;21.50;1.00;;;;;;5115354;27;20538;-75
2021/07/09 10:25:03;;;;;;;14.73;13.37;;;21.50;1.00;;;;;;5108645;27;20448;-75
2021/07/09 10:27:33;;;;;;;15.10;13.50;;;21.50;1.00;;;;;;5110449;27;20446;-75
2021/07/09 10:30:03;;;;;;;13.63;12.50;;;21.40;1.00;;;;;;5107082;27;20508;-75
2021/07/09 10:32:32;;;;;;;15.97;14.50;;;21.40;1.00;;;;;;5106983;27;20445;-74
2021/07/09 10:34:59;;;;;;;14.93;13.67;;;21.50;1.00;;;;;;5102862;27;20826;-74
2021/07/09 10:37:28;;;;;;;16.57;14.80;;;21.50;1.00;;;;;;5106169;27;20456;-77
2021/07/09 10:40:06;;;;;;;15.40;14.10;;;21.60;1.00;;;;;;5103437;27;21265;-74
2021/07/09 10:42:39;;;;;;;16.80;15.27;;;21.50;1.00;;;;;;5107972;27;20445;-74
2021/07/09 10:45:20;;;;;;;16.63;15.23;;;21.50;1.00;;;;;;5107742;27;20454;-75
2021/07/09 10:47:49;;;;;;;16.70;15.10;;;21.50;1.00;;;;;;5108356;27;20457;-76
2021/07/09 10:50:19;;;;;;;19.00;17.20;;;21.50;1.00;;;;;;5106554;27;20462;-76
2021/07/09 10:52:52;;;;;;;19.50;17.80;;;21.50;1.00;;;;;;5113562;27;20456;-75
2021/07/09 10:55:46;;;;;;;20.83;18.83;;;21.40;1.00;;;;;;5108444;27;20974;-75
2021/07/09 10:58:43;;;;;;;21.00;19.07;;;21.30;1.00;;;;;;5105862;27;20486;-75
2021/07/09 11:01:12;;;;;;;19.70;17.80;;;21.30;1.00;;;;;;5113150;27;21398;-76
2021/07/09 11:03:41;;;;;;;19.90;18.20;;;21.20;1.00;;;;;;5107020;27;20570;-77
2021/07/09 11:06:09;;;;;;;23.03;20.83;;;21.10;1.00;;;;;;5109369;27;20456;-76
2021/07/09 11:08:50;;;;;;;22.00;19.80;;;21.10;1.00;;;;;;5109646;27;20448;-75
2021/07/09 11:11:18;;;;;;;23.23;21.07;;;21.00;1.00;;;;;;5109428;27;20542;-76
2021/07/09 11:13:49;;;;;;;22.37;20.30;;;21.00;1.00;;;;;;5110003;27;20446;-76
2021/07/09 11:16:24;;;;;;;24.23;21.73;;;21.00;1.00;;;;;;5101057;27;21322;-76
2021/07/09 11:18:53;;;;;;;26.13;23.33;;;21.00;1.00;;;;;;5106338;27;20404;-76
2021/07/09 11:21:59;;;;;;;27.10;24.60;;;21.10;1.00;;;;;;5107169;27;20454;-75
2021/07/09 11:24:28;;;;;;;27.03;24.27;;;21.10;1.00;;;;;;5092354;27;20439;-76
2021/07/09 11:26:57;;;;;;;27.73;24.73;;;21.20;1.00;;;;;;5105290;27;20450;-76
2021/07/09 11:29:34;;;;;;;28.23;24.33;;;21.40;1.00;;;;;;5106207;27;21336;-76
2021/07/09 11:32:03;;;;;;;25.57;22.77;;;21.60;1.00;;;;;;5109534;27;20537;-76
2021/07/09 11:34:31;;;;;;;27.97;25.37;;;21.80;1.00;;;;;;5107979;27;20453;-76
2021/07/09 11:37:00;;;;;;;26.70;24.03;;;22.00;1.00;;;;;;5103700;27;20582;-77
2021/07/09 11:39:28;;;;;;;26.13;23.63;;;22.20;1.00;;;;;;5107382;27;20481;-75
2021/07/09 11:41:57;;;;;;;28.27;25.33;;;22.20;1.00;;;;;;5113511;27;20453;-75
2021/07/09 11:44:26;;;;;;;27.30;24.53;;;22.30;1.00;;;;;;5103191;27;21368;-75
2021/07/09 11:46:56;;;;;;;26.07;23.40;;;22.30;1.00;;;;;;5112762;27;20603;-76
2021/07/09 11:49:25;;;;;;;28.37;24.60;;;22.30;1.00;;;;;;5104661;27;20429;-82
2021/07/09 11:51:54;;;;;;;28.60;25.80;;;22.30;1.00;;;;;;5107026;27;20861;-76
2021/07/09 11:54:29;;;;;;;29.40;26.33;;;22.40;1.00;;;;;;5104345;27;20449;-76
2021/07/09 11:57:02;;;;;;;26.43;24.03;;;22.50;1.00;;;;;;5101992;27;20498;-76
2021/07/09 11:59:30;;;;;;;29.33;26.33;;;22.60;1.00;;;;;;5105986;27;20441;-76
2021/07/09 12:02:12;;;;;;;27.70;24.33;;;22.80;1.00;;;;;;5106433;27;20440;-77
2021/07/09 12:04:41;;;;;;;29.60;26.33;;;23.00;1.00;;;;;;5106533;27;20431;-76
2021/07/09 12:07:33;;;;;;;31.33;24.93;;;23.20;1.00;;;;;;5103211;27;20841;-77
2021/07/09 12:10:04;;;;;;;25.90;23.37;;;23.50;1.00;;;;;;5117539;27;20515;-77
2021/07/09 12:12:34;;;;;;;26.83;24.17;;;23.70;1.00;;;;;;5108588;27;20506;-74
2021/07/09 12:15:05;;;;;;;25.80;22.77;;;23.80;1.00;;;;;;5113015;27;20446;-76
2021/07/09 12:17:35;;;;;;;25.90;23.47;;;23.80;1.00;;;;;;5102726;27;20480;-76
2021/07/09 12:20:11;;;;;;;26.60;23.37;;;23.90;1.00;;;;;;5102368;27;20449;-76
2021/07/09 12:22:41;;;;;;;26.53;24.13;;;23.80;1.00;;;;;;5104030;27;20456;-75
2021/07/09 12:25:14;;;;;;;27.67;24.70;;;23.70;1.00;;;;;;5105239;27;20435;-75
2021/07/09 12:27:41;;;;;;;27.73;24.80;;;23.70;1.00;;;;;;5106136;27;20447;-76
2021/07/09 12:30:12;;;;;;;26.60;23.57;;;23.80;1.00;;;;;;5105424;27;21044;-76
2021/07/09 12:32:51;;;;;;;25.93;23.43;;;23.80;1.00;;;;;;5112466;27;20431;-77
2021/07/09 12:35:18;;;;;;;27.53;24.70;;;23.80;1.00;;;;;;5102970;27;20520;-76
2021/07/09 12:38:00;;;;;;;27.10;24.40;;;23.80;1.00;;;;;;5109779;27;20465;-74
2021/07/09 12:40:35;;;;;;;26.50;24.00;;;23.90;1.00;;;;;;5106536;27;20448;-76
2021/07/09 12:43:15;;;;;;;27.33;24.40;;;24.00;1.00;;;;;;5103403;27;20527;-76
2021/07/09 12:45:44;;;;;;;26.93;24.43;;;24.20;1.00;;;;;;5110158;27;20466;-75
2021/07/09 12:48:12;;;;;;;25.93;23.30;;;24.50;1.00;;;;;;5099700;27;20458;-76
2021/07/09 12:50:41;;;;;;;26.50;23.87;;;24.60;1.00;;;;;;5104881;27;21553;-77